sensor_id;sensor_type;location;lat;lon;timestamp;temperature;humidity
1381;DHT22;684;48.342;10.096;2023-02-01T00:02:13;4.50;33.30
1381;DHT22;684;48.342;10.096;2023-02-01T00:04:40;4.40;33.30
1381;DHT22;684;48.342;10.096;2023-02-01T00:07:06;4.40;33.30
1381;DHT22;684;48.342;10.096;2023-02-01T00:09:33;4.50;33.40
1381;DHT22;684;48.342;10.096;2023-02-01T00:12:00;4.50;33.40
1381;DHT22;684;48.342;10.096;2023-02-01T00:14:29;4.40;33.30
1381;DHT22;684;48.342;10.096;2023-02-01T00:16:57;4.40;33.50
1381;DHT22;684;48.342;10.096;2023-02-01T00:19:24;4.40;33.50
1381;DHT22;684;48.342;10.096;2023-02-01T00:21:51;4.40;33.50
1381;DHT22;684;48.342;10.096;2023-02-01T00:24:17;4.40;33.60
1381;DHT22;684;48.342;10.096;2023-02-01T00:26:45;4.40;33.60
1381;DHT22;684;48.342;10.096;2023-02-01T00:29:13;4.40;33.60
1381;DHT22;684;48.342;10.096;2023-02-01T00:31:42;4.40;34.20
1381;DHT22;684;48.342;10.096;2023-02-01T00:34:12;4.40;33.70
1381;DHT22;684;48.342;10.096;2023-02-01T00:36:39;4.40;33.80
1381;DHT22;684;48.342;10.096;2023-02-01T00:39:06;4.30;33.90
1381;DHT22;684;48.342;10.096;2023-02-01T00:41:33;4.30;34.10
1381;DHT22;684;48.342;10.096;2023-02-01T00:44:00;4.30;34.10
1381;DHT22;684;48.342;10.096;2023-02-01T00:46:27;4.30;34.20
1381;DHT22;684;48.342;10.096;2023-02-01T00:48:55;4.30;34.30
1381;DHT22;684;48.342;10.096;2023-02-01T00:51:23;4.30;34.30
1381;DHT22;684;48.342;10.096;2023-02-01T00:53:51;4.30;34.30
1381;DHT22;684;48.342;10.096;2023-02-01T00:56:18;4.30;34.40
1381;DHT22;684;48.342;10.096;2023-02-01T00:58:45;4.30;34.40
1381;DHT22;684;48.342;10.096;2023-02-01T01:01:14;4.30;34.30
1381;DHT22;684;48.342;10.096;2023-02-01T01:03:42;4.30;34.40
1381;DHT22;684;48.342;10.096;2023-02-01T01:06:12;4.30;34.40
1381;DHT22;684;48.342;10.096;2023-02-01T01:08:40;4.30;34.40
1381;DHT22;684;48.342;10.096;2023-02-01T01:11:08;4.30;34.50
1381;DHT22;684;48.342;10.096;2023-02-01T01:13:36;4.30;34.60
1381;DHT22;684;48.342;10.096;2023-02-01T01:16:03;4.30;34.60
1381;DHT22;684;48.342;10.096;2023-02-01T01:18:31;4.30;34.70
1381;DHT22;684;48.342;10.096;2023-02-01T01:20:58;4.30;34.60
1381;DHT22;684;48.342;10.096;2023-02-01T01:23:27;4.30;34.60
1381;DHT22;684;48.342;10.096;2023-02-01T01:25:54;4.30;34.60
1381;DHT22;684;48.342;10.096;2023-02-01T01:28:21;4.30;34.50
1381;DHT22;684;48.342;10.096;2023-02-01T01:30:48;4.30;34.60
1381;DHT22;684;48.342;10.096;2023-02-01T01:33:14;4.30;34.80
1381;DHT22;684;48.342;10.096;2023-02-01T01:35:41;4.30;34.80
1381;DHT22;684;48.342;10.096;2023-02-01T01:38:09;4.30;34.80
1381;DHT22;684;48.342;10.096;2023-02-01T01:40:38;4.30;34.90
1381;DHT22;684;48.342;10.096;2023-02-01T01:43:12;4.30;34.90
1381;DHT22;684;48.342;10.096;2023-02-01T01:45:39;4.30;35.00
1381;DHT22;684;48.342;10.096;2023-02-01T01:48:12;4.30;35.00
1381;DHT22;684;48.342;10.096;2023-02-01T01:50:42;4.30;35.00
1381;DHT22;684;48.342;10.096;2023-02-01T01:53:12;4.30;35.10
1381;DHT22;684;48.342;10.096;2023-02-01T01:55:43;4.30;35.30
1381;DHT22;684;48.342;10.096;2023-02-01T01:58:14;4.20;35.20
1381;DHT22;684;48.342;10.096;2023-02-01T02:00:43;4.20;35.40
1381;DHT22;684;48.342;10.096;2023-02-01T02:03:15;4.10;35.60
1381;DHT22;684;48.342;10.096;2023-02-01T02:05:44;4.10;35.70
1381;DHT22;684;48.342;10.096;2023-02-01T02:08:11;4.10;35.70
1381;DHT22;684;48.342;10.096;2023-02-01T02:10:38;4.10;35.80
1381;DHT22;684;48.342;10.096;2023-02-01T02:13:24;4.10;35.80
1381;DHT22;684;48.342;10.096;2023-02-01T02:16:01;4.10;35.80
1381;DHT22;684;48.342;10.096;2023-02-01T02:18:37;4.10;35.90
1381;DHT22;684;48.342;10.096;2023-02-01T02:21:16;4.10;35.90
1381;DHT22;684;48.342;10.096;2023-02-01T02:24:14;4.10;35.90
1381;DHT22;684;48.342;10.096;2023-02-01T02:27:06;4.10;36.00
1381;DHT22;684;48.342;10.096;2023-02-01T02:33:27;4.10;36.20
1381;DHT22;684;48.342;10.096;2023-02-01T02:36:01;4.10;36.30
1381;DHT22;684;48.342;10.096;2023-02-01T02:38:36;4.10;36.40
1381;DHT22;684;48.342;10.096;2023-02-01T02:41:14;4.10;36.40
1381;DHT22;684;48.342;10.096;2023-02-01T02:44:09;4.10;36.60
1381;DHT22;684;48.342;10.096;2023-02-01T02:46:58;4.10;36.70
1381;DHT22;684;48.342;10.096;2023-02-01T02:49:49;4.10;36.70
1381;DHT22;684;48.342;10.096;2023-02-01T02:52:45;4.10;36.80
1381;DHT22;684;48.342;10.096;2023-02-01T02:55:31;4.00;36.80
1381;DHT22;684;48.342;10.096;2023-02-01T02:58:02;4.10;36.80
1381;DHT22;684;48.342;10.096;2023-02-01T03:00:48;4.10;36.80
1381;DHT22;684;48.342;10.096;2023-02-01T03:03:36;4.10;36.90
1381;DHT22;684;48.342;10.096;2023-02-01T03:06:23;4.10;36.80
1381;DHT22;684;48.342;10.096;2023-02-01T03:08:50;4.10;36.90
1381;DHT22;684;48.342;10.096;2023-02-01T03:11:20;4.10;36.70
1381;DHT22;684;48.342;10.096;2023-02-01T03:13:51;4.10;36.80
1381;DHT22;684;48.342;10.096;2023-02-01T03:16:21;4.10;36.70
1381;DHT22;684;48.342;10.096;2023-02-01T03:18:54;4.10;36.90
1381;DHT22;684;48.342;10.096;2023-02-01T03:21:26;4.10;36.80
1381;DHT22;684;48.342;10.096;2023-02-01T03:23:57;4.10;36.60
1381;DHT22;684;48.342;10.096;2023-02-01T03:26:27;4.10;36.70
1381;DHT22;684;48.342;10.096;2023-02-01T03:29:11;4.10;36.70
1381;DHT22;684;48.342;10.096;2023-02-01T03:31:39;4.20;36.70
1381;DHT22;684;48.342;10.096;2023-02-01T03:34:06;4.10;36.70
1381;DHT22;684;48.342;10.096;2023-02-01T03:36:37;4.20;36.70
1381;DHT22;684;48.342;10.096;2023-02-01T03:39:09;4.20;36.60
1381;DHT22;684;48.342;10.096;2023-02-01T03:41:40;4.20;36.50
1381;DHT22;684;48.342;10.096;2023-02-01T03:44:13;4.20;36.40
1381;DHT22;684;48.342;10.096;2023-02-01T03:46:45;4.20;36.30
1381;DHT22;684;48.342;10.096;2023-02-01T03:49:16;4.20;36.30
1381;DHT22;684;48.342;10.096;2023-02-01T03:51:46;4.20;36.40
1381;DHT22;684;48.342;10.096;2023-02-01T03:54:15;4.30;36.40
1381;DHT22;684;48.342;10.096;2023-02-01T03:56:44;4.30;36.40
1381;DHT22;684;48.342;10.096;2023-02-01T03:59:13;4.30;36.40
1381;DHT22;684;48.342;10.096;2023-02-01T04:01:40;4.30;36.40
1381;DHT22;684;48.342;10.096;2023-02-01T04:04:07;4.30;36.50
1381;DHT22;684;48.342;10.096;2023-02-01T04:06:34;4.30;36.60
1381;DHT22;684;48.342;10.096;2023-02-01T04:09:03;4.30;36.80
1381;DHT22;684;48.342;10.096;2023-02-01T04:11:29;4.30;36.80
1381;DHT22;684;48.342;10.096;2023-02-01T04:13:56;4.30;36.90
1381;DHT22;684;48.342;10.096;2023-02-01T04:16:23;4.30;36.90
1381;DHT22;684;48.342;10.096;2023-02-01T04:18:49;4.20;36.90
1381;DHT22;684;48.342;10.096;2023-02-01T04:21:17;4.20;37.00
1381;DHT22;684;48.342;10.096;2023-02-01T04:23:44;4.30;37.10
1381;DHT22;684;48.342;10.096;2023-02-01T04:26:12;4.20;37.10
1381;DHT22;684;48.342;10.096;2023-02-01T04:28:38;4.20;37.00
1381;DHT22;684;48.342;10.096;2023-02-01T04:31:05;4.20;36.90
1381;DHT22;684;48.342;10.096;2023-02-01T04:33:32;4.20;36.80
1381;DHT22;684;48.342;10.096;2023-02-01T04:35:59;4.20;36.80
1381;DHT22;684;48.342;10.096;2023-02-01T04:38:26;4.20;36.90
1381;DHT22;684;48.342;10.096;2023-02-01T04:40:54;4.20;36.90
1381;DHT22;684;48.342;10.096;2023-02-01T04:43:22;4.20;37.00
1381;DHT22;684;48.342;10.096;2023-02-01T04:45:49;4.20;37.10
1381;DHT22;684;48.342;10.096;2023-02-01T04:48:16;4.20;37.10
1381;DHT22;684;48.342;10.096;2023-02-01T04:50:44;4.20;37.20
1381;DHT22;684;48.342;10.096;2023-02-01T04:53:13;4.10;37.40
1381;DHT22;684;48.342;10.096;2023-02-01T04:55:39;4.10;37.60
1381;DHT22;684;48.342;10.096;2023-02-01T04:58:06;4.20;37.50
1381;DHT22;684;48.342;10.096;2023-02-01T05:00:34;4.10;37.70
1381;DHT22;684;48.342;10.096;2023-02-01T05:03:01;4.10;37.90
1381;DHT22;684;48.342;10.096;2023-02-01T05:05:28;4.10;37.90
1381;DHT22;684;48.342;10.096;2023-02-01T05:07:55;4.10;38.00
1381;DHT22;684;48.342;10.096;2023-02-01T05:10:22;4.10;38.20
1381;DHT22;684;48.342;10.096;2023-02-01T05:12:48;4.10;38.50
1381;DHT22;684;48.342;10.096;2023-02-01T05:15:34;4.10;38.40
1381;DHT22;684;48.342;10.096;2023-02-01T05:18:01;4.00;38.50
1381;DHT22;684;48.342;10.096;2023-02-01T05:20:28;4.10;38.60
1381;DHT22;684;48.342;10.096;2023-02-01T05:22:55;4.00;38.70
1381;DHT22;684;48.342;10.096;2023-02-01T05:25:21;4.00;38.70
1381;DHT22;684;48.342;10.096;2023-02-01T05:27:48;4.00;38.60
1381;DHT22;684;48.342;10.096;2023-02-01T05:30:15;4.00;38.50
1381;DHT22;684;48.342;10.096;2023-02-01T05:32:43;4.00;38.60
1381;DHT22;684;48.342;10.096;2023-02-01T05:35:10;4.00;38.70
1381;DHT22;684;48.342;10.096;2023-02-01T05:37:37;4.00;38.80
1381;DHT22;684;48.342;10.096;2023-02-01T05:40:04;4.00;38.70
1381;DHT22;684;48.342;10.096;2023-02-01T05:42:31;4.00;38.60
1381;DHT22;684;48.342;10.096;2023-02-01T05:44:58;4.00;38.60
1381;DHT22;684;48.342;10.096;2023-02-01T05:47:24;4.10;38.70
1381;DHT22;684;48.342;10.096;2023-02-01T05:49:52;4.10;38.70
1381;DHT22;684;48.342;10.096;2023-02-01T05:52:19;4.10;38.60
1381;DHT22;684;48.342;10.096;2023-02-01T05:54:46;4.10;38.70
1381;DHT22;684;48.342;10.096;2023-02-01T05:57:13;4.10;38.60
1381;DHT22;684;48.342;10.096;2023-02-01T05:59:40;4.10;38.60
1381;DHT22;684;48.342;10.096;2023-02-01T06:02:10;4.10;38.70
1381;DHT22;684;48.342;10.096;2023-02-01T06:04:37;4.10;38.70
1381;DHT22;684;48.342;10.096;2023-02-01T06:07:05;4.10;38.50
1381;DHT22;684;48.342;10.096;2023-02-01T06:09:33;4.10;38.50
1381;DHT22;684;48.342;10.096;2023-02-01T06:11:59;4.10;38.40
1381;DHT22;684;48.342;10.096;2023-02-01T06:14:26;4.10;38.30
1381;DHT22;684;48.342;10.096;2023-02-01T06:16:53;4.20;38.10
1381;DHT22;684;48.342;10.096;2023-02-01T06:19:20;4.20;38.20
1381;DHT22;684;48.342;10.096;2023-02-01T06:21:47;4.10;38.20
1381;DHT22;684;48.342;10.096;2023-02-01T06:24:15;4.20;38.10
1381;DHT22;684;48.342;10.096;2023-02-01T06:26:42;4.10;38.30
1381;DHT22;684;48.342;10.096;2023-02-01T06:29:09;4.20;38.20
1381;DHT22;684;48.342;10.096;2023-02-01T06:31:36;4.20;38.10
1381;DHT22;684;48.342;10.096;2023-02-01T06:34:03;4.20;38.10
1381;DHT22;684;48.342;10.096;2023-02-01T06:36:30;4.20;38.00
1381;DHT22;684;48.342;10.096;2023-02-01T06:38:57;4.20;38.10
1381;DHT22;684;48.342;10.096;2023-02-01T06:41:26;4.20;37.90
1381;DHT22;684;48.342;10.096;2023-02-01T06:43:52;4.20;37.80
1381;DHT22;684;48.342;10.096;2023-02-01T06:46:19;4.30;37.90
1381;DHT22;684;48.342;10.096;2023-02-01T06:48:46;4.30;38.00
1381;DHT22;684;48.342;10.096;2023-02-01T06:51:19;4.30;37.90
1381;DHT22;684;48.342;10.096;2023-02-01T06:53:46;4.30;38.00
1381;DHT22;684;48.342;10.096;2023-02-01T06:56:13;4.30;37.90
1381;DHT22;684;48.342;10.096;2023-02-01T06:58:41;4.30;37.80
1381;DHT22;684;48.342;10.096;2023-02-01T07:01:09;4.30;37.80
1381;DHT22;684;48.342;10.096;2023-02-01T07:03:37;4.40;37.60
1381;DHT22;684;48.342;10.096;2023-02-01T07:06:04;4.40;37.60
1381;DHT22;684;48.342;10.096;2023-02-01T07:08:33;4.30;37.70
1381;DHT22;684;48.342;10.096;2023-02-01T07:11:02;4.40;37.70
1381;DHT22;684;48.342;10.096;2023-02-01T07:13:29;4.40;37.60
1381;DHT22;684;48.342;10.096;2023-02-01T07:15:59;4.40;37.50
1381;DHT22;684;48.342;10.096;2023-02-01T07:18:27;4.40;37.50
1381;DHT22;684;48.342;10.096;2023-02-01T07:20:54;4.40;37.50
1381;DHT22;684;48.342;10.096;2023-02-01T07:23:22;4.40;37.30
1381;DHT22;684;48.342;10.096;2023-02-01T07:25:52;4.40;37.40
1381;DHT22;684;48.342;10.096;2023-02-01T07:28:19;4.50;37.20
1381;DHT22;684;48.342;10.096;2023-02-01T07:30:45;4.50;37.30
1381;DHT22;684;48.342;10.096;2023-02-01T07:33:18;4.50;37.10
1381;DHT22;684;48.342;10.096;2023-02-01T07:35:45;4.50;37.20
1381;DHT22;684;48.342;10.096;2023-02-01T07:38:12;4.60;37.10
1381;DHT22;684;48.342;10.096;2023-02-01T07:40:39;4.60;36.80
1381;DHT22;684;48.342;10.096;2023-02-01T07:43:05;4.70;36.90
1381;DHT22;684;48.342;10.096;2023-02-01T07:45:33;4.60;36.50
1381;DHT22;684;48.342;10.096;2023-02-01T07:48:00;4.70;36.50
1381;DHT22;684;48.342;10.096;2023-02-01T07:50:28;4.80;36.40
1381;DHT22;684;48.342;10.096;2023-02-01T07:52:58;4.80;36.20
1381;DHT22;684;48.342;10.096;2023-02-01T07:55:25;4.80;36.00
1381;DHT22;684;48.342;10.096;2023-02-01T07:57:52;4.80;35.80
1381;DHT22;684;48.342;10.096;2023-02-01T08:00:19;4.90;35.80
1381;DHT22;684;48.342;10.096;2023-02-01T08:03:04;4.90;35.70
1381;DHT22;684;48.342;10.096;2023-02-01T08:05:32;4.90;35.80
1381;DHT22;684;48.342;10.096;2023-02-01T08:08:00;4.90;35.80
1381;DHT22;684;48.342;10.096;2023-02-01T08:10:26;4.90;35.70
1381;DHT22;684;48.342;10.096;2023-02-01T08:12:57;4.90;35.70
1381;DHT22;684;48.342;10.096;2023-02-01T08:15:25;4.90;35.60
1381;DHT22;684;48.342;10.096;2023-02-01T08:17:52;4.90;35.80
1381;DHT22;684;48.342;10.096;2023-02-01T08:20:20;4.90;35.70
1381;DHT22;684;48.342;10.096;2023-02-01T08:22:49;4.90;35.80
1381;DHT22;684;48.342;10.096;2023-02-01T08:25:16;5.00;35.80
1381;DHT22;684;48.342;10.096;2023-02-01T08:27:43;5.00;35.60
1381;DHT22;684;48.342;10.096;2023-02-01T08:30:11;5.10;35.60
1381;DHT22;684;48.342;10.096;2023-02-01T08:32:38;5.10;35.50
1381;DHT22;684;48.342;10.096;2023-02-01T08:35:05;5.10;35.20
1381;DHT22;684;48.342;10.096;2023-02-01T08:37:32;5.10;35.10
1381;DHT22;684;48.342;10.096;2023-02-01T08:40:00;5.20;35.00
1381;DHT22;684;48.342;10.096;2023-02-01T08:42:27;5.30;35.00
1381;DHT22;684;48.342;10.096;2023-02-01T08:45:11;5.30;34.50
1381;DHT22;684;48.342;10.096;2023-02-01T08:47:39;5.30;34.60
1381;DHT22;684;48.342;10.096;2023-02-01T08:50:06;5.30;34.50
1381;DHT22;684;48.342;10.096;2023-02-01T08:52:34;5.30;34.50
1381;DHT22;684;48.342;10.096;2023-02-01T08:55:02;5.30;34.30
1381;DHT22;684;48.342;10.096;2023-02-01T08:57:29;5.30;34.50
1381;DHT22;684;48.342;10.096;2023-02-01T08:59:56;5.30;34.20
1381;DHT22;684;48.342;10.096;2023-02-01T09:02:23;5.50;33.70
1381;DHT22;684;48.342;10.096;2023-02-01T09:04:49;5.60;33.60
1381;DHT22;684;48.342;10.096;2023-02-01T09:07:16;5.70;33.40
1381;DHT22;684;48.342;10.096;2023-02-01T09:09:43;5.90;32.80
1381;DHT22;684;48.342;10.096;2023-02-01T09:12:12;6.30;32.10
1381;DHT22;684;48.342;10.096;2023-02-01T09:14:38;6.50;31.00
1381;DHT22;684;48.342;10.096;2023-02-01T09:17:05;6.70;30.40
1381;DHT22;684;48.342;10.096;2023-02-01T09:19:32;6.80;29.90
1381;DHT22;684;48.342;10.096;2023-02-01T09:21:59;6.90;29.50
1381;DHT22;684;48.342;10.096;2023-02-01T09:24:25;6.90;29.10
1381;DHT22;684;48.342;10.096;2023-02-01T09:26:53;6.80;29.00
1381;DHT22;684;48.342;10.096;2023-02-01T09:29:21;6.70;29.50
1381;DHT22;684;48.342;10.096;2023-02-01T09:31:47;6.70;29.70
1381;DHT22;684;48.342;10.096;2023-02-01T09:34:14;6.70;29.60
1381;DHT22;684;48.342;10.096;2023-02-01T09:36:41;6.60;29.40
1381;DHT22;684;48.342;10.096;2023-02-01T09:39:07;6.60;29.60
1381;DHT22;684;48.342;10.096;2023-02-01T09:41:45;6.60;29.60
1381;DHT22;684;48.342;10.096;2023-02-01T09:44:24;6.60;29.90
1381;DHT22;684;48.342;10.096;2023-02-01T09:46:58;6.50;29.90
1381;DHT22;684;48.342;10.096;2023-02-01T09:49:28;6.50;30.10
1381;DHT22;684;48.342;10.096;2023-02-01T09:51:56;6.40;30.80
1381;DHT22;684;48.342;10.096;2023-02-01T09:54:25;6.30;30.50
1381;DHT22;684;48.342;10.096;2023-02-01T09:56:55;6.30;30.70
1381;DHT22;684;48.342;10.096;2023-02-01T09:59:31;6.30;30.80
1381;DHT22;684;48.342;10.096;2023-02-01T10:02:02;6.20;30.60
1381;DHT22;684;48.342;10.096;2023-02-01T10:04:30;6.30;30.80
1381;DHT22;684;48.342;10.096;2023-02-01T10:07:06;6.40;31.10
1381;DHT22;684;48.342;10.096;2023-02-01T10:09:52;6.30;30.70
1381;DHT22;684;48.342;10.096;2023-02-01T10:12:45;6.30;31.00
1381;DHT22;684;48.342;10.096;2023-02-01T10:15:34;6.30;30.90
1381;DHT22;684;48.342;10.096;2023-02-01T10:18:18;6.30;30.90
1381;DHT22;684;48.342;10.096;2023-02-01T10:20:57;6.30;30.90
1381;DHT22;684;48.342;10.096;2023-02-01T10:23:50;6.30;30.90
1381;DHT22;684;48.342;10.096;2023-02-01T10:26:23;6.20;30.80
1381;DHT22;684;48.342;10.096;2023-02-01T10:28:52;6.10;30.90
1381;DHT22;684;48.342;10.096;2023-02-01T10:31:23;6.00;31.20
1381;DHT22;684;48.342;10.096;2023-02-01T10:33:56;6.00;31.40
1381;DHT22;684;48.342;10.096;2023-02-01T10:36:27;5.90;31.40
1381;DHT22;684;48.342;10.096;2023-02-01T10:38:56;5.70;31.70
1381;DHT22;684;48.342;10.096;2023-02-01T10:41:27;5.70;32.00
1381;DHT22;684;48.342;10.096;2023-02-01T10:43:57;5.70;32.70
1381;DHT22;684;48.342;10.096;2023-02-01T10:46:26;5.70;32.50
1381;DHT22;684;48.342;10.096;2023-02-01T10:48:55;5.60;32.30
1381;DHT22;684;48.342;10.096;2023-02-01T10:51:24;5.60;32.30
1381;DHT22;684;48.342;10.096;2023-02-01T10:53:57;5.50;32.40
1381;DHT22;684;48.342;10.096;2023-02-01T10:56:26;5.50;32.70
1381;DHT22;684;48.342;10.096;2023-02-01T10:59:00;5.50;33.00
1381;DHT22;684;48.342;10.096;2023-02-01T11:01:33;5.50;33.00
1381;DHT22;684;48.342;10.096;2023-02-01T11:04:02;5.50;33.00
1381;DHT22;684;48.342;10.096;2023-02-01T11:06:31;5.50;33.10
1381;DHT22;684;48.342;10.096;2023-02-01T11:09:02;5.50;33.00
1381;DHT22;684;48.342;10.096;2023-02-01T11:11:53;5.60;32.80
1381;DHT22;684;48.342;10.096;2023-02-01T11:14:27;5.60;32.90
1381;DHT22;684;48.342;10.096;2023-02-01T11:16:59;5.60;32.70
1381;DHT22;684;48.342;10.096;2023-02-01T11:19:26;5.70;32.90
1381;DHT22;684;48.342;10.096;2023-02-01T11:21:55;5.70;32.80
1381;DHT22;684;48.342;10.096;2023-02-01T11:24:24;5.70;32.40
1381;DHT22;684;48.342;10.096;2023-02-01T11:26:55;5.70;32.60
1381;DHT22;684;48.342;10.096;2023-02-01T11:29:23;5.70;32.60
1381;DHT22;684;48.342;10.096;2023-02-01T11:31:56;5.70;32.40
1381;DHT22;684;48.342;10.096;2023-02-01T11:34:26;5.80;32.50
1381;DHT22;684;48.342;10.096;2023-02-01T11:36:58;5.80;32.30
1381;DHT22;684;48.342;10.096;2023-02-01T11:39:27;5.90;32.30
1381;DHT22;684;48.342;10.096;2023-02-01T11:41:59;6.00;31.90
1381;DHT22;684;48.342;10.096;2023-02-01T11:44:30;6.20;31.50
1381;DHT22;684;48.342;10.096;2023-02-01T11:47:18;6.20;30.40
1381;DHT22;684;48.342;10.096;2023-02-01T11:49:45;6.30;30.40
1381;DHT22;684;48.342;10.096;2023-02-01T11:52:18;6.40;30.30
1381;DHT22;684;48.342;10.096;2023-02-01T11:54:59;6.50;30.40
1381;DHT22;684;48.342;10.096;2023-02-01T11:57:41;6.60;30.20
1381;DHT22;684;48.342;10.096;2023-02-01T12:00:33;6.70;29.60
1381;DHT22;684;48.342;10.096;2023-02-01T12:03:34;6.80;29.60
1381;DHT22;684;48.342;10.096;2023-02-01T12:06:08;6.90;28.80
1381;DHT22;684;48.342;10.096;2023-02-01T12:08:59;7.00;28.20
1381;DHT22;684;48.342;10.096;2023-02-01T12:11:46;7.00;28.30
1381;DHT22;684;48.342;10.096;2023-02-01T12:14:31;7.00;28.20
1381;DHT22;684;48.342;10.096;2023-02-01T12:17:30;6.90;28.00
1381;DHT22;684;48.342;10.096;2023-02-01T12:20:20;6.90;28.40
1381;DHT22;684;48.342;10.096;2023-02-01T12:22:58;6.90;28.30
1381;DHT22;684;48.342;10.096;2023-02-01T12:25:37;6.80;28.20
1381;DHT22;684;48.342;10.096;2023-02-01T12:28:41;6.80;28.30
1381;DHT22;684;48.342;10.096;2023-02-01T12:31:26;6.80;28.50
1381;DHT22;684;48.342;10.096;2023-02-01T12:34:05;6.80;28.10
1381;DHT22;684;48.342;10.096;2023-02-01T12:36:41;6.80;27.80
1381;DHT22;684;48.342;10.096;2023-02-01T12:39:19;6.80;28.10
1381;DHT22;684;48.342;10.096;2023-02-01T12:42:08;6.70;28.30
1381;DHT22;684;48.342;10.096;2023-02-01T12:44:41;6.70;28.30
1381;DHT22;684;48.342;10.096;2023-02-01T12:47:18;6.70;28.40
1381;DHT22;684;48.342;10.096;2023-02-01T12:49:53;6.70;28.60
1381;DHT22;684;48.342;10.096;2023-02-01T12:52:28;6.80;28.50
1381;DHT22;684;48.342;10.096;2023-02-01T12:55:06;6.80;28.30
1381;DHT22;684;48.342;10.096;2023-02-01T12:57:36;6.80;28.60
1381;DHT22;684;48.342;10.096;2023-02-01T13:00:13;6.80;28.90
1381;DHT22;684;48.342;10.096;2023-02-01T13:02:52;6.80;28.90
1381;DHT22;684;48.342;10.096;2023-02-01T13:05:22;6.70;29.10
1381;DHT22;684;48.342;10.096;2023-02-01T13:07:59;6.60;29.40
1381;DHT22;684;48.342;10.096;2023-02-01T13:10:32;6.50;30.00
1381;DHT22;684;48.342;10.096;2023-02-01T13:13:06;6.40;30.30
1381;DHT22;684;48.342;10.096;2023-02-01T13:15:39;6.30;30.80
1381;DHT22;684;48.342;10.096;2023-02-01T13:18:09;6.30;31.10
1381;DHT22;684;48.342;10.096;2023-02-01T13:20:45;6.20;31.20
1381;DHT22;684;48.342;10.096;2023-02-01T13:23:22;6.10;31.40
1381;DHT22;684;48.342;10.096;2023-02-01T13:25:51;6.10;31.70
1381;DHT22;684;48.342;10.096;2023-02-01T13:28:24;6.00;31.60
1381;DHT22;684;48.342;10.096;2023-02-01T13:31:05;6.00;31.30
1381;DHT22;684;48.342;10.096;2023-02-01T13:34:09;6.00;31.80
1381;DHT22;684;48.342;10.096;2023-02-01T13:36:54;6.00;31.20
1381;DHT22;684;48.342;10.096;2023-02-01T13:39:49;6.00;31.30
1381;DHT22;684;48.342;10.096;2023-02-01T13:42:23;6.00;31.60
1381;DHT22;684;48.342;10.096;2023-02-01T13:44:55;5.90;31.90
1381;DHT22;684;48.342;10.096;2023-02-01T13:47:26;5.90;32.10
1381;DHT22;684;48.342;10.096;2023-02-01T13:49:56;5.90;32.00
1381;DHT22;684;48.342;10.096;2023-02-01T13:52:31;5.90;31.80
1381;DHT22;684;48.342;10.096;2023-02-01T13:55:15;5.90;31.40
1381;DHT22;684;48.342;10.096;2023-02-01T13:57:47;5.90;31.50
1381;DHT22;684;48.342;10.096;2023-02-01T14:00:25;5.90;31.70
1381;DHT22;684;48.342;10.096;2023-02-01T14:03:12;5.90;31.30
1381;DHT22;684;48.342;10.096;2023-02-01T14:06:05;5.90;29.60
1381;DHT22;684;48.342;10.096;2023-02-01T14:09:11;5.90;27.80
1381;DHT22;684;48.342;10.096;2023-02-01T14:11:44;5.90;29.20
1381;DHT22;684;48.342;10.096;2023-02-01T14:14:53;5.90;29.90
1381;DHT22;684;48.342;10.096;2023-02-01T14:17:40;5.90;30.20
1381;DHT22;684;48.342;10.096;2023-02-01T14:23:27;5.90;30.00
1381;DHT22;684;48.342;10.096;2023-02-01T14:26:12;5.90;30.00
1381;DHT22;684;48.342;10.096;2023-02-01T14:28:45;5.90;30.20
1381;DHT22;684;48.342;10.096;2023-02-01T14:31:24;5.90;30.10
1381;DHT22;684;48.342;10.096;2023-02-01T14:33:56;5.90;30.00
1381;DHT22;684;48.342;10.096;2023-02-01T14:36:25;5.90;29.70
1381;DHT22;684;48.342;10.096;2023-02-01T14:38:52;5.90;29.50
1381;DHT22;684;48.342;10.096;2023-02-01T14:41:30;5.80;29.30
1381;DHT22;684;48.342;10.096;2023-02-01T14:44:26;5.80;29.50
1381;DHT22;684;48.342;10.096;2023-02-01T14:47:25;5.80;29.60
1381;DHT22;684;48.342;10.096;2023-02-01T14:49:56;5.80;29.60
1381;DHT22;684;48.342;10.096;2023-02-01T14:52:30;5.80;29.60
1381;DHT22;684;48.342;10.096;2023-02-01T14:55:03;5.80;30.00
1381;DHT22;684;48.342;10.096;2023-02-01T14:57:34;5.80;30.20
1381;DHT22;684;48.342;10.096;2023-02-01T15:00:16;5.80;30.20
1381;DHT22;684;48.342;10.096;2023-02-01T15:02:43;5.80;30.00
1381;DHT22;684;48.342;10.096;2023-02-01T15:05:23;5.80;30.00
1381;DHT22;684;48.342;10.096;2023-02-01T15:07:50;5.80;29.90
1381;DHT22;684;48.342;10.096;2023-02-01T15:10:18;5.80;29.40
1381;DHT22;684;48.342;10.096;2023-02-01T15:12:47;5.90;28.30
1381;DHT22;684;48.342;10.096;2023-02-01T15:15:19;5.90;27.90
1381;DHT22;684;48.342;10.096;2023-02-01T15:17:51;5.90;27.80
1381;DHT22;684;48.342;10.096;2023-02-01T15:20:20;5.80;27.50
1381;DHT22;684;48.342;10.096;2023-02-01T15:22:55;5.80;26.90
1381;DHT22;684;48.342;10.096;2023-02-01T15:25:24;5.80;26.70
1381;DHT22;684;48.342;10.096;2023-02-01T15:27:51;5.80;27.00
1381;DHT22;684;48.342;10.096;2023-02-01T15:30:22;5.80;27.10
1381;DHT22;684;48.342;10.096;2023-02-01T15:32:49;5.80;27.00
1381;DHT22;684;48.342;10.096;2023-02-01T15:35:41;5.80;27.00
1381;DHT22;684;48.342;10.096;2023-02-01T15:38:19;5.80;27.00
1381;DHT22;684;48.342;10.096;2023-02-01T15:40:54;5.80;26.70
1381;DHT22;684;48.342;10.096;2023-02-01T15:43:21;5.80;26.70
1381;DHT22;684;48.342;10.096;2023-02-01T15:45:50;5.80;26.60
1381;DHT22;684;48.342;10.096;2023-02-01T15:48:22;5.80;26.70
1381;DHT22;684;48.342;10.096;2023-02-01T15:50:50;5.70;26.90
1381;DHT22;684;48.342;10.096;2023-02-01T15:53:19;5.70;27.00
1381;DHT22;684;48.342;10.096;2023-02-01T15:55:51;5.70;26.90
1381;DHT22;684;48.342;10.096;2023-02-01T15:58:21;5.70;26.90
1381;DHT22;684;48.342;10.096;2023-02-01T16:00:52;5.70;26.90
1381;DHT22;684;48.342;10.096;2023-02-01T16:03:36;5.70;27.00
1381;DHT22;684;48.342;10.096;2023-02-01T16:06:06;5.70;27.00
1381;DHT22;684;48.342;10.096;2023-02-01T16:08:34;5.80;27.00
1381;DHT22;684;48.342;10.096;2023-02-01T16:11:23;5.70;27.10
1381;DHT22;684;48.342;10.096;2023-02-01T16:13:51;5.70;27.00
1381;DHT22;684;48.342;10.096;2023-02-01T16:16:19;5.70;26.90
1381;DHT22;684;48.342;10.096;2023-02-01T16:18:45;5.70;27.10
1381;DHT22;684;48.342;10.096;2023-02-01T16:21:12;5.80;26.70
1381;DHT22;684;48.342;10.096;2023-02-01T16:23:41;5.70;26.70
1381;DHT22;684;48.342;10.096;2023-02-01T16:26:08;5.70;27.30
1381;DHT22;684;48.342;10.096;2023-02-01T16:28:35;5.70;26.60
1381;DHT22;684;48.342;10.096;2023-02-01T16:31:02;5.70;26.60
1381;DHT22;684;48.342;10.096;2023-02-01T16:33:30;5.70;26.80
1381;DHT22;684;48.342;10.096;2023-02-01T16:35:57;5.70;27.00
1381;DHT22;684;48.342;10.096;2023-02-01T16:38:27;5.70;27.00
1381;DHT22;684;48.342;10.096;2023-02-01T16:40:54;5.70;27.10
1381;DHT22;684;48.342;10.096;2023-02-01T16:43:24;5.60;27.30
1381;DHT22;684;48.342;10.096;2023-02-01T16:45:54;5.70;27.00
1381;DHT22;684;48.342;10.096;2023-02-01T16:48:22;5.70;26.80
1381;DHT22;684;48.342;10.096;2023-02-01T16:50:53;5.70;26.80
1381;DHT22;684;48.342;10.096;2023-02-01T16:53:21;5.70;26.60
1381;DHT22;684;48.342;10.096;2023-02-01T16:55:49;5.70;26.70